KBKE/BKE METAR and TAF weather

Enter ICAO airport designator
Station Type Date Time Source
KBKE METAR 2019/02/23 02:53 UTC NOAA

KBKE 230253Z AUTO 00000KT 10SM SCT048 OVC060 M02/M06 A2996 RMK AO2 SLP184 T10171061 53001


Station Type Date Time Source
KBKE Decoded METAR 2019/02/23 02:53 UTC NOAA

BAKER MUNICIPAL AIRPORT, OR, United States (KBKE) 44-50N 117-49W 1024M
Feb 22, 2019 - 09:53 PM EST / 2019.02.23 0253 UTC
Wind: Calm:0
Visibility: 10 mile(s):0
Sky conditions: overcast
Temperature: 28.9 F (-1.7 C)
Dew Point: 21.0 F (-6.1 C)
Relative Humidity: 71%
Pressure (altimeter): 29.96 in. Hg (1014 hPa)
Pressure tendency: 0.00 inches (0.1 hPa) higher than three hours ago
ob: KBKE 230253Z AUTO 00000KT 10SM SCT048 OVC060 M02/M06 A2996 RMK AO2 SLP184 T10171061 53001
cycle: 3

Station Type Date Time Source
KBKE TAF 2019/02/22 18:39 UTC NOAA

TAF KBKE 221736Z 2218/2318 VRB03KT P6SM FEW100 OVC200
FM230000 12010KT P6SM OVC100
FM230400 13010KT P6SM VCSH FEW040 OVC060
FM230800 12010KT 5SM -SN BR OVC030


Example: see airport list